createdAt,value
2023-03-06T00:00:46.567Z,16.07
2023-03-06T00:01:46.620Z,16.08
2023-03-06T00:02:46.608Z,16.08
2023-03-06T00:03:46.645Z,16.05
2023-03-06T00:04:46.708Z,16.11
2023-03-06T00:05:46.715Z,16.17
2023-03-06T00:06:46.721Z,16.07
2023-03-06T00:07:46.771Z,16.13
2023-03-06T00:08:46.770Z,16.10
2023-03-06T00:09:46.795Z,16.07
2023-03-06T00:10:46.841Z,16.13
2023-03-06T00:11:46.852Z,16.10
2023-03-06T00:12:46.932Z,16.08
2023-03-06T00:13:46.929Z,16.07
2023-03-06T00:14:46.947Z,16.05
2023-03-06T00:15:46.995Z,16.08
2023-03-06T00:16:46.990Z,16.08
2023-03-06T00:17:47.013Z,16.08
2023-03-06T00:18:47.056Z,16.07
2023-03-06T00:19:47.054Z,16.11
2023-03-06T00:20:47.123Z,16.08
2023-03-06T00:21:47.113Z,16.08
2023-03-06T00:22:47.159Z,16.06
2023-03-06T00:23:47.167Z,16.05
2023-03-06T00:24:47.210Z,16.10
2023-03-06T00:25:47.213Z,16.10
2023-03-06T00:26:47.268Z,16.10
2023-03-06T00:27:47.276Z,16.13
2023-03-06T00:28:47.304Z,16.08
2023-03-06T00:29:47.360Z,16.11
2023-03-06T00:30:47.363Z,16.08
2023-03-06T00:31:47.435Z,16.05
2023-03-06T00:32:47.412Z,16.06
2023-03-06T00:33:47.439Z,16.10
2023-03-06T00:34:47.460Z,16.14
2023-03-06T00:35:47.529Z,16.11
2023-03-06T00:36:47.501Z,16.14
2023-03-06T00:37:47.552Z,16.13
2023-03-06T00:38:47.560Z,16.10
2023-03-06T00:39:47.607Z,16.08
2023-03-06T00:40:47.629Z,16.16
2023-03-06T00:41:47.656Z,16.02
2023-03-06T00:42:47.699Z,16.10
2023-03-06T00:43:47.676Z,16.08
2023-03-06T00:44:47.697Z,16.10
2023-03-06T00:45:47.787Z,16.10
2023-03-06T00:46:47.749Z,16.08
2023-03-06T00:47:47.783Z,16.11
2023-03-06T00:48:47.819Z,16.13
2023-03-06T00:49:47.829Z,16.13
2023-03-06T00:50:47.841Z,16.11
2023-03-06T00:51:47.874Z,16.13
2023-03-06T00:52:47.916Z,16.10
2023-03-06T00:53:47.936Z,16.13
2023-03-06T00:54:47.968Z,16.14
2023-03-06T00:55:47.964Z,16.10
2023-03-06T00:56:48.009Z,16.16
2023-03-06T00:57:48.048Z,16.19
2023-03-06T00:58:48.045Z,16.13
2023-03-06T00:59:48.069Z,16.20
2023-03-06T01:00:48.174Z,16.14
2023-03-06T01:01:48.159Z,16.17
2023-03-06T01:02:48.127Z,16.19
2023-03-06T01:03:48.198Z,16.13
2023-03-06T01:04:48.184Z,16.10
2023-03-06T01:05:48.209Z,16.11
2023-03-06T01:06:48.231Z,16.11
2023-03-06T01:07:48.267Z,16.11
2023-03-06T01:08:48.290Z,16.13
2023-03-06T01:09:48.304Z,16.14
2023-03-06T01:10:48.382Z,16.13
2023-03-06T01:11:48.374Z,16.13
2023-03-06T01:12:48.415Z,16.14
2023-03-06T01:13:48.428Z,16.13
2023-03-06T01:14:48.469Z,16.16
2023-03-06T01:15:48.511Z,16.14
2023-03-06T01:16:48.529Z,16.11
2023-03-06T01:17:48.557Z,16.14
2023-03-06T01:18:48.573Z,16.17
2023-03-06T01:19:48.573Z,16.15
2023-03-06T01:20:48.617Z,16.15
2023-03-06T01:21:48.643Z,16.17
2023-03-06T01:22:48.657Z,16.10
2023-03-06T01:23:48.690Z,16.16
2023-03-06T01:24:48.716Z,16.14
2023-03-06T01:25:48.718Z,16.13
2023-03-06T01:26:48.763Z,16.14
2023-03-06T01:27:48.800Z,16.14
2023-03-06T01:28:48.813Z,16.12
2023-03-06T01:29:48.824Z,16.13
2023-03-06T01:30:48.884Z,16.13
2023-03-06T01:31:48.933Z,16.11
2023-03-06T01:32:48.936Z,16.18
2023-03-06T01:33:48.982Z,16.14
2023-03-06T01:34:49.019Z,16.16
2023-03-06T01:35:49.071Z,16.11
2023-03-06T01:36:49.085Z,16.15
2023-03-06T01:37:49.093Z,16.18
2023-03-06T01:38:49.141Z,16.16
2023-03-06T01:39:49.144Z,16.16
2023-03-06T01:40:49.187Z,16.17
2023-03-06T01:41:49.206Z,16.17
2023-03-06T01:42:49.231Z,16.13
2023-03-06T01:43:49.302Z,16.17
2023-03-06T01:44:49.300Z,16.08
2023-03-06T01:45:49.410Z,16.14
2023-03-06T01:46:49.377Z,16.09
2023-03-06T01:47:49.395Z,16.14
2023-03-06T01:48:49.408Z,16.06
2023-03-06T01:49:49.466Z,16.13
2023-03-06T01:50:49.475Z,16.05
2023-03-06T01:51:49.509Z,16.12
2023-03-06T01:52:49.567Z,16.11
2023-03-06T01:53:49.617Z,16.14
2023-03-06T01:54:49.598Z,16.14
2023-03-06T01:55:49.648Z,16.12
2023-03-06T01:56:49.674Z,16.08
2023-03-06T01:57:49.715Z,16.12
2023-03-06T01:58:49.740Z,16.15
2023-03-06T01:59:49.804Z,16.12
2023-03-06T02:00:49.836Z,16.09
2023-03-06T02:01:49.868Z,16.14
2023-03-06T02:02:49.911Z,16.12
2023-03-06T02:03:49.916Z,16.12
2023-03-06T02:04:49.931Z,16.15
2023-03-06T02:05:49.987Z,16.19
2023-03-06T02:06:49.987Z,16.10
2023-03-06T02:07:50.043Z,16.10
2023-03-06T02:08:50.066Z,16.11
2023-03-06T02:09:50.088Z,16.08
2023-03-06T02:10:50.115Z,16.08
2023-03-06T02:11:50.144Z,16.11
2023-03-06T02:12:50.157Z,16.07
2023-03-06T02:13:50.177Z,16.07
2023-03-06T02:14:50.218Z,16.09
2023-03-06T02:15:50.239Z,16.02
2023-03-06T02:16:50.280Z,16.04
2023-03-06T02:17:50.280Z,16.04
2023-03-06T02:18:50.290Z,16.06
2023-03-06T02:19:50.302Z,16.04
2023-03-06T02:20:50.299Z,16.00
2023-03-06T02:21:50.350Z,15.94
2023-03-06T02:22:50.332Z,15.95
2023-03-06T02:23:50.376Z,15.95
2023-03-06T02:24:50.339Z,15.93
2023-03-06T02:25:50.351Z,15.87
2023-03-06T02:26:50.349Z,15.88
2023-03-06T02:29:50.352Z,15.86
2023-03-06T02:30:50.387Z,15.81
2023-03-06T02:31:50.314Z,15.80
2023-03-06T02:32:50.375Z,15.80
2023-03-06T02:33:50.374Z,15.74
2023-03-06T02:34:50.386Z,15.78
2023-03-06T02:35:50.423Z,15.74
2023-03-06T02:36:50.432Z,15.71
2023-03-06T02:37:50.471Z,15.75
2023-03-06T02:38:50.472Z,15.68
2023-03-06T02:39:50.488Z,15.71
2023-03-06T02:40:50.533Z,15.70
2023-03-06T02:41:50.586Z,15.70
2023-03-06T02:42:50.613Z,15.70
2023-03-06T02:43:50.668Z,15.71
2023-03-06T02:44:50.727Z,15.67
2023-03-06T02:45:50.853Z,15.73
2023-03-06T02:46:50.850Z,15.74
2023-03-06T02:47:50.949Z,15.64
2023-03-06T02:48:50.992Z,15.70
2023-03-06T02:49:51.053Z,15.67
2023-03-06T02:50:51.124Z,15.71
2023-03-06T02:51:51.176Z,15.68
2023-03-06T02:52:51.232Z,15.72
2023-03-06T02:53:51.290Z,15.64
2023-03-06T02:54:51.408Z,15.68
2023-03-06T02:55:51.406Z,15.68
2023-03-06T02:56:51.491Z,15.70
2023-03-06T02:57:51.532Z,15.67
2023-03-06T02:58:51.574Z,15.72
2023-03-06T02:59:51.652Z,15.68
2023-03-06T03:00:51.699Z,15.67
2023-03-06T03:01:51.832Z,15.67
2023-03-06T03:02:51.803Z,15.68
2023-03-06T03:03:51.849Z,15.70
2023-03-06T03:04:51.946Z,15.67
2023-03-06T03:05:51.950Z,15.66
2023-03-06T03:06:52.013Z,15.60
2023-03-06T03:07:52.038Z,15.64
2023-03-06T03:08:52.129Z,15.67
2023-03-06T03:09:52.185Z,15.70
2023-03-06T03:10:52.205Z,15.71
2023-03-06T03:11:52.244Z,15.70
2023-03-06T03:12:52.266Z,15.64
2023-03-06T03:13:52.445Z,15.64
2023-03-06T03:14:52.364Z,15.66
2023-03-06T03:15:52.438Z,15.69
2023-03-06T03:16:52.502Z,15.70
2023-03-06T03:17:52.510Z,15.73
2023-03-06T03:18:52.556Z,15.72
2023-03-06T03:19:52.628Z,15.72
2023-03-06T03:20:52.700Z,15.76
2023-03-06T03:21:52.707Z,15.76
2023-03-06T03:22:52.750Z,15.73
2023-03-06T03:23:52.776Z,15.77
2023-03-06T03:24:52.946Z,15.75
2023-03-06T03:25:52.879Z,15.71
2023-03-06T03:26:52.888Z,15.75
2023-03-06T03:27:52.979Z,15.73
2023-03-06T03:28:53.039Z,15.77
2023-03-06T03:29:53.031Z,15.77
2023-03-06T03:30:53.138Z,15.73
2023-03-06T03:31:53.113Z,15.73
2023-03-06T03:32:53.154Z,15.73
2023-03-06T03:33:53.176Z,15.75
2023-03-06T03:34:53.285Z,15.75
2023-03-06T03:35:53.275Z,15.75
2023-03-06T05:19:56.169Z,15.58
2023-03-06T05:27:56.425Z,15.58
2023-03-06T05:28:56.479Z,15.53
2023-03-06T05:29:56.509Z,15.55
2023-03-06T05:30:56.528Z,15.56
2023-03-06T05:31:56.639Z,15.60
2023-03-06T05:32:56.614Z,15.55
2023-03-06T05:33:56.617Z,15.55
2023-03-06T05:34:56.662Z,15.53
2023-03-06T05:35:56.753Z,15.58
2023-03-06T05:36:56.754Z,15.61
2023-03-06T05:37:56.797Z,15.53
2023-03-06T05:38:56.824Z,15.55
2023-03-06T05:39:56.858Z,15.59
2023-03-06T05:40:56.920Z,15.55
2023-03-06T05:41:56.948Z,15.55
2023-03-06T05:42:56.953Z,15.58
2023-03-06T05:43:56.999Z,15.53
2023-03-06T05:44:57.024Z,15.58
2023-03-06T05:45:57.114Z,15.56
2023-03-06T05:46:57.080Z,15.60
2023-03-06T05:47:57.140Z,15.56
2023-03-06T05:48:57.163Z,15.55
2023-03-06T05:49:57.190Z,15.53
2023-03-06T05:50:57.218Z,15.53
2023-03-06T05:51:57.262Z,15.55
2023-03-06T05:52:57.293Z,15.52
2023-03-06T05:53:57.330Z,15.55
2023-03-06T05:54:57.360Z,15.52
2023-03-06T05:55:57.383Z,15.55
2023-03-06T05:56:57.423Z,15.53
2023-03-06T05:57:57.465Z,15.56
2023-03-06T05:58:57.502Z,15.53
2023-03-06T05:59:57.538Z,15.52
2023-03-06T06:01:04.928Z,15.62
2023-03-06T06:02:57.603Z,15.49
2023-03-06T06:03:57.601Z,15.52
2023-03-06T06:04:57.626Z,15.49
2023-03-06T06:05:57.543Z,15.46
2023-03-06T06:06:57.514Z,15.50
2023-03-06T06:07:57.519Z,15.50
2023-03-06T06:25:58.003Z,15.52
2023-03-06T06:35:57.932Z,17.13
2023-03-06T06:36:57.959Z,17.44
2023-03-06T06:37:57.993Z,17.69
2023-03-06T06:38:58.046Z,17.95
2023-03-06T06:39:58.172Z,17.45
2023-03-06T06:41:29.149Z,17.90
2023-03-06T06:42:15.463Z,18.58
2023-03-06T06:42:59.149Z,19.00
2023-03-06T06:43:59.121Z,19.26
2023-03-06T06:44:58.139Z,19.15
2023-03-06T06:46:28.274Z,18.68
2023-03-06T06:47:28.214Z,18.38
2023-03-06T06:47:59.225Z,18.32
2023-03-06T06:48:58.230Z,18.44
2023-03-06T06:49:58.145Z,18.80
2023-03-06T06:50:58.131Z,19.27
2023-03-06T06:51:58.081Z,19.56
2023-03-06T06:52:58.107Z,19.76
2023-03-06T06:53:58.075Z,20.02
2023-03-06T06:54:58.061Z,20.17
2023-03-06T06:55:58.070Z,20.58
2023-03-06T06:56:58.043Z,20.74
2023-03-06T06:57:58.053Z,21.17
2023-03-06T06:59:14.004Z,21.30
2023-03-06T06:59:59.006Z,21.06
2023-03-06T07:00:58.047Z,21.77
2023-03-06T07:01:58.049Z,21.92
2023-03-06T07:02:58.035Z,22.00
2023-03-06T07:03:58.067Z,21.97
2023-03-06T07:05:04.172Z,22.23
2023-03-06T07:05:59.009Z,22.47
2023-03-06T07:06:57.972Z,22.44
2023-03-06T07:07:57.989Z,22.47
2023-03-06T07:08:58.021Z,22.64
2023-03-06T07:09:57.966Z,22.80
2023-03-06T07:10:57.935Z,22.79
2023-03-06T07:11:57.978Z,22.82
2023-03-06T07:12:57.953Z,22.91
2023-03-06T07:13:57.924Z,22.91
2023-03-06T07:14:57.938Z,23.15
2023-03-06T07:15:58.058Z,23.20
2023-03-06T07:16:57.969Z,23.26
2023-03-06T07:17:57.912Z,23.41
2023-03-06T07:18:57.926Z,23.42
2023-03-06T07:19:57.884Z,23.67
2023-03-06T07:20:59.822Z,23.67
2023-03-06T07:21:57.895Z,23.75
2023-03-06T07:22:57.889Z,23.90
2023-03-06T07:23:58.459Z,23.92
2023-03-06T07:24:57.855Z,23.97
2023-03-06T07:25:57.872Z,23.98
2023-03-06T07:26:57.836Z,24.11
2023-03-06T07:27:57.841Z,24.19
2023-03-06T07:28:57.815Z,24.14
2023-03-06T07:29:57.810Z,24.24
2023-03-06T07:30:57.829Z,24.32
2023-03-06T07:31:57.820Z,24.30
2023-03-06T07:32:57.777Z,24.45
2023-03-06T07:33:57.824Z,24.45
2023-03-06T07:35:57.786Z,24.90
2023-03-06T07:36:57.996Z,24.92
2023-03-06T07:37:57.752Z,24.82
2023-03-06T07:38:57.757Z,24.67
2023-03-06T07:39:57.717Z,24.62
2023-03-06T07:40:57.729Z,24.42
2023-03-06T07:41:58.039Z,24.22
2023-03-06T07:43:09.172Z,24.16
2023-03-06T07:43:58.734Z,24.18
2023-03-06T07:44:57.736Z,24.28
2023-03-06T07:45:57.765Z,24.32
2023-03-06T07:46:57.778Z,24.40
2023-03-06T07:47:57.674Z,24.49
2023-03-06T07:48:57.684Z,24.57
2023-03-06T07:49:57.696Z,24.70
2023-03-06T07:50:57.677Z,24.67
2023-03-06T07:51:58.055Z,24.77
2023-03-06T07:52:57.664Z,24.76
2023-03-06T07:53:57.625Z,25.05
2023-03-06T07:54:57.658Z,25.01
2023-03-06T07:55:57.918Z,24.82
2023-03-06T07:56:58.522Z,24.72
2023-03-06T07:57:57.600Z,24.40
2023-03-06T07:58:57.625Z,24.16
2023-03-06T07:59:57.628Z,23.94
2023-03-06T08:00:57.602Z,23.67
2023-03-06T08:01:57.627Z,23.52
2023-03-06T08:02:57.666Z,23.26
2023-03-06T08:03:57.790Z,22.99
2023-03-06T08:04:57.713Z,22.89
2023-03-06T08:06:57.984Z,22.74
2023-03-06T08:07:57.685Z,22.45
2023-03-06T08:08:57.699Z,22.41
2023-03-06T08:09:57.719Z,22.15
2023-03-06T08:10:57.668Z,22.07
2023-03-06T08:11:57.697Z,21.99
2023-03-06T08:12:57.689Z,21.86
2023-03-06T08:13:57.691Z,21.89
2023-03-06T08:14:57.715Z,21.77
2023-03-06T08:15:57.750Z,21.73
2023-03-06T08:16:57.711Z,21.70
2023-03-06T08:17:57.967Z,21.65
2023-03-06T08:21:57.695Z,21.30
2023-03-06T08:22:57.977Z,21.26
2023-03-06T08:23:57.703Z,21.29
2023-03-06T08:24:57.756Z,21.23
2023-03-06T08:25:57.711Z,21.17
2023-03-06T08:26:57.751Z,21.08
2023-03-06T08:27:57.992Z,21.00
2023-03-06T08:28:57.762Z,21.02
2023-03-06T08:29:57.794Z,21.00
2023-03-06T08:30:57.822Z,21.00
2023-03-06T08:31:57.804Z,20.97
2023-03-06T08:32:57.965Z,21.00
2023-03-06T08:33:58.031Z,17.56
2023-03-06T08:34:57.901Z,16.94
2023-03-06T08:35:58.806Z,16.89
2023-03-06T08:36:57.977Z,18.04
2023-03-06T08:37:58.571Z,19.32
2023-03-06T08:38:58.088Z,19.61
2023-03-06T08:39:58.094Z,19.89
2023-03-06T08:40:58.083Z,20.37
2023-03-06T08:41:58.102Z,19.28
2023-03-06T08:42:58.547Z,18.99
2023-03-06T08:43:58.211Z,19.70
2023-03-06T08:44:58.205Z,20.15
2023-03-06T08:45:58.233Z,20.23
2023-03-06T08:46:58.282Z,20.59
2023-03-06T08:47:58.555Z,21.20
2023-03-06T08:48:58.437Z,21.23
2023-03-06T08:50:00.180Z,21.37
2023-03-06T08:50:58.451Z,21.55
2023-03-06T08:51:58.414Z,21.57
2023-03-06T08:52:58.514Z,21.71
2023-03-06T08:53:58.472Z,21.79
2023-03-06T08:54:58.516Z,21.81
2023-03-06T08:55:58.568Z,21.85
2023-03-06T08:56:58.581Z,21.89
2023-03-06T08:57:58.600Z,22.00
2023-03-06T08:58:58.594Z,22.17
2023-03-06T08:59:58.613Z,22.35
2023-03-06T09:00:58.745Z,22.31
2023-03-06T09:01:58.640Z,22.30
2023-03-06T09:02:58.750Z,22.51
2023-03-06T09:03:58.773Z,22.50
2023-03-06T09:04:58.834Z,22.91
2023-03-06T09:05:58.878Z,22.84
2023-03-06T09:06:58.948Z,22.80
2023-03-06T09:07:58.966Z,23.01
2023-03-06T09:08:58.966Z,23.06
2023-03-06T09:09:59.015Z,23.23
2023-03-06T09:10:59.121Z,23.32
2023-03-06T09:11:59.994Z,23.22
2023-03-06T09:12:59.108Z,23.57
2023-03-06T09:13:59.119Z,23.56
2023-03-06T09:14:59.161Z,23.66
2023-03-06T09:15:59.163Z,23.65
2023-03-06T09:16:59.165Z,23.83
2023-03-06T09:17:59.184Z,23.82
2023-03-06T09:18:59.140Z,23.97
2023-03-06T09:19:59.157Z,24.06
2023-03-06T09:20:59.152Z,24.06
2023-03-06T09:21:59.116Z,24.08
2023-03-06T09:22:59.103Z,24.19
2023-03-06T09:23:59.149Z,24.26
2023-03-06T09:24:59.182Z,24.42
2023-03-06T09:25:59.199Z,24.50
2023-03-06T09:26:59.203Z,24.48
2023-03-06T09:28:10.788Z,24.76
2023-03-06T09:29:00.236Z,24.63
2023-03-06T09:29:59.180Z,24.89
2023-03-06T09:30:59.372Z,24.83
2023-03-06T09:31:59.184Z,24.81
2023-03-06T09:32:59.509Z,20.61
2023-03-06T09:33:59.184Z,17.56
2023-03-06T09:34:59.179Z,17.47
2023-03-06T09:35:59.269Z,17.52
2023-03-06T09:37:59.526Z,20.23
2023-03-06T09:38:59.241Z,20.57
2023-03-06T09:39:59.505Z,21.12
2023-03-06T09:40:59.106Z,21.44
2023-03-06T09:41:59.465Z,21.85
2023-03-06T09:42:59.209Z,22.24
2023-03-06T09:43:59.177Z,22.28
2023-03-06T09:44:59.189Z,21.93
2023-03-06T09:45:59.294Z,21.92
2023-03-06T09:46:59.323Z,21.90
2023-03-06T09:47:59.339Z,22.20
2023-03-06T09:48:59.348Z,21.85
2023-03-06T09:49:59.400Z,21.79
2023-03-06T09:50:59.764Z,21.98
2023-03-06T09:51:59.412Z,21.92
2023-03-06T09:52:59.442Z,21.78
2023-03-06T09:53:59.520Z,22.12
2023-03-06T09:54:59.473Z,22.06
2023-03-06T09:55:59.512Z,22.32
2023-03-06T09:56:59.551Z,22.47
2023-03-06T09:57:59.565Z,22.70
2023-03-06T09:59:00.030Z,23.13
2023-03-06T10:00:01.009Z,23.38
2023-03-06T10:00:59.723Z,23.43
2023-03-06T10:01:59.795Z,23.42
2023-03-06T10:02:59.886Z,23.93
2023-03-06T10:03:59.859Z,23.96
2023-03-06T10:04:59.882Z,24.13
2023-03-06T10:06:02.429Z,24.24
2023-03-06T10:06:59.929Z,24.35
2023-03-06T10:07:59.921Z,24.57
2023-03-06T10:08:59.915Z,24.48
2023-03-06T10:09:59.905Z,24.63
2023-03-06T10:10:59.919Z,24.92
2023-03-06T10:11:59.900Z,24.88
2023-03-06T10:12:59.850Z,24.94
2023-03-06T10:14:00.056Z,24.95
2023-03-06T10:14:59.874Z,25.17
2023-03-06T10:15:59.903Z,25.31
2023-03-06T10:16:59.830Z,25.42
2023-03-06T10:17:59.834Z,25.50
2023-03-06T10:18:59.845Z,25.96
2023-03-06T10:19:59.893Z,26.10
2023-03-06T10:21:13.427Z,26.12
2023-03-06T10:22:00.804Z,26.30
2023-03-06T10:23:03.160Z,26.42
2023-03-06T10:24:01.058Z,26.61
2023-03-06T10:24:59.822Z,26.73
2023-03-06T10:25:59.881Z,26.99
2023-03-06T10:26:59.931Z,26.86
2023-03-06T10:27:59.846Z,27.15
2023-03-06T10:28:59.746Z,27.15
2023-03-06T10:30:03.339Z,27.33
2023-03-06T10:30:59.858Z,27.42
2023-03-06T10:31:59.841Z,27.62
2023-03-06T10:32:59.874Z,27.76
2023-03-06T10:33:59.796Z,27.56
2023-03-06T10:34:59.787Z,27.75
2023-03-06T10:35:59.803Z,27.95
2023-03-06T10:36:59.795Z,27.86
2023-03-06T10:37:59.754Z,27.96
2023-03-06T10:38:59.822Z,28.11
2023-03-06T10:39:59.793Z,28.08
2023-03-06T10:40:59.749Z,28.25
2023-03-06T10:41:59.704Z,19.17
2023-03-06T10:43:11.191Z,16.80
2023-03-06T10:44:00.763Z,17.41
2023-03-06T10:44:59.760Z,17.42
2023-03-06T10:45:59.796Z,18.70
2023-03-06T10:46:59.733Z,20.63
2023-03-06T10:47:59.696Z,21.08
2023-03-06T10:49:00.095Z,21.78
2023-03-06T10:49:59.674Z,22.58
2023-03-06T10:51:01.115Z,23.02
2023-03-06T10:51:59.644Z,23.65
2023-03-06T10:53:00.530Z,23.72
2023-03-06T10:53:59.739Z,23.88
2023-03-06T10:54:59.640Z,23.89
2023-03-06T10:55:59.629Z,24.12
2023-03-06T10:56:59.654Z,24.00
2023-03-06T10:57:59.620Z,24.08
2023-03-06T10:59:00.177Z,24.16
2023-03-06T10:59:59.613Z,24.23
2023-03-06T11:00:59.595Z,24.32
2023-03-06T11:01:59.659Z,24.37
2023-03-06T11:02:59.600Z,24.39
2023-03-06T11:03:59.585Z,24.73
2023-03-06T11:04:59.642Z,24.78
2023-03-06T11:05:59.533Z,24.81
2023-03-06T11:06:59.530Z,24.98
2023-03-06T11:07:59.597Z,25.09
2023-03-06T11:09:59.525Z,25.25
2023-03-06T11:10:59.515Z,25.38
2023-03-06T11:11:59.505Z,25.35
2023-03-06T11:12:59.482Z,25.51
2023-03-06T11:13:59.584Z,25.55
2023-03-06T11:14:59.534Z,25.69
2023-03-06T11:15:59.471Z,25.86
2023-03-06T11:16:59.472Z,25.92
2023-03-06T11:17:59.496Z,26.04
2023-03-06T11:18:59.544Z,26.08
2023-03-06T11:19:59.466Z,26.06
2023-03-06T11:20:59.440Z,26.28
2023-03-06T11:21:59.478Z,26.30
2023-03-06T11:22:59.643Z,26.49
2023-03-06T11:23:59.606Z,26.56
2023-03-06T11:24:59.429Z,26.62
2023-03-06T11:25:59.445Z,26.65
2023-03-06T11:26:59.395Z,26.77
2023-03-06T11:27:59.389Z,26.81
2023-03-06T11:28:59.460Z,26.96
2023-03-06T11:29:59.467Z,26.77
2023-03-06T11:30:59.589Z,26.85
2023-03-06T11:31:59.624Z,27.21
2023-03-06T11:32:59.618Z,27.15
2023-03-06T11:33:59.723Z,27.34
2023-03-06T11:35:00.176Z,27.19
2023-03-06T11:35:59.828Z,27.36
2023-03-06T11:36:59.823Z,27.08
2023-03-06T11:37:59.912Z,27.49
2023-03-06T11:38:59.936Z,27.20
2023-03-06T11:40:00.008Z,27.64
2023-03-06T11:41:00.001Z,27.01
2023-03-06T11:41:59.965Z,27.00
2023-03-06T11:43:00.381Z,26.15
2023-03-06T11:44:00.372Z,26.04
2023-03-06T11:45:01.314Z,26.01
2023-03-06T11:46:00.103Z,25.86
2023-03-06T11:47:00.166Z,25.61
2023-03-06T11:48:00.145Z,25.53
2023-03-06T11:49:00.120Z,25.31
2023-03-06T11:50:00.580Z,25.18
2023-03-06T11:51:00.177Z,25.01
2023-03-06T11:52:00.264Z,24.94
2023-03-06T11:53:00.219Z,24.78
2023-03-06T11:54:00.284Z,24.73
2023-03-06T11:55:00.703Z,24.55
2023-03-06T11:56:00.332Z,24.49
2023-03-06T11:57:00.333Z,24.40
2023-03-06T11:58:00.376Z,24.23
2023-03-06T11:59:00.405Z,24.16
2023-03-06T12:00:00.449Z,24.15
2023-03-06T12:01:00.517Z,23.94
2023-03-06T12:02:00.743Z,23.92
2023-03-06T12:03:00.542Z,23.78
2023-03-06T12:04:00.609Z,23.69
2023-03-06T12:05:01.203Z,23.63
2023-03-06T12:06:00.695Z,23.58
2023-03-06T12:07:00.743Z,23.44
2023-03-06T12:08:00.782Z,23.41
2023-03-06T12:09:00.864Z,23.24
2023-03-06T12:10:00.901Z,23.21
2023-03-06T12:11:00.932Z,23.11
2023-03-06T12:12:00.976Z,23.01
2023-03-06T12:13:01.063Z,23.03
2023-03-06T12:14:03.616Z,22.91
2023-03-06T12:15:01.135Z,22.83
2023-03-06T12:16:01.032Z,22.77
2023-03-06T12:17:01.080Z,22.74
2023-03-06T12:18:01.117Z,22.62
2023-03-06T12:19:01.094Z,22.63
2023-03-06T12:20:01.104Z,22.53
2023-03-06T12:21:01.043Z,22.37
2023-03-06T12:22:01.058Z,22.39
2023-03-06T12:23:14.645Z,22.28
2023-03-06T12:24:02.052Z,22.22
2023-03-06T12:25:01.058Z,22.24
2023-03-06T12:26:01.046Z,22.12
2023-03-06T12:27:01.002Z,22.04
2023-03-06T12:28:00.982Z,22.00
2023-03-06T12:29:00.998Z,21.98
2023-03-06T12:30:01.196Z,21.87
2023-03-06T12:31:00.977Z,21.78
2023-03-06T12:32:01.081Z,22.17
2023-03-06T12:33:00.956Z,21.79
2023-03-06T12:34:00.960Z,21.78
2023-03-06T12:35:01.188Z,21.81
2023-03-06T12:36:00.939Z,21.64
2023-03-06T12:37:00.904Z,21.59
2023-03-06T12:38:00.949Z,21.38
2023-03-06T12:39:00.942Z,21.29
2023-03-06T12:40:00.937Z,20.99
2023-03-06T12:41:00.895Z,20.71
2023-03-06T12:42:00.946Z,20.70
2023-03-06T12:43:00.918Z,20.44
2023-03-06T12:44:00.910Z,20.39
2023-03-06T12:45:00.956Z,20.29
2023-03-06T12:46:00.930Z,20.15
2023-03-06T12:47:00.928Z,20.26
2023-03-06T12:48:00.924Z,19.92
2023-03-06T12:49:00.934Z,19.98
2023-03-06T12:50:00.953Z,19.86
2023-03-06T12:51:00.949Z,19.84
2023-03-06T12:52:00.951Z,19.71
2023-03-06T12:53:00.915Z,19.69
2023-03-06T12:54:00.930Z,19.60
2023-03-06T12:55:00.902Z,19.59
2023-03-06T12:56:00.898Z,19.57
2023-03-06T12:57:00.918Z,19.49
2023-03-06T12:58:00.900Z,19.49
2023-03-06T12:59:00.899Z,19.49
2023-03-06T13:00:00.895Z,19.53
2023-03-06T13:01:04.732Z,19.45
2023-03-06T13:02:00.882Z,19.46
2023-03-06T13:03:00.879Z,19.51
2023-03-06T13:04:00.859Z,19.46
2023-03-06T13:05:00.868Z,19.37
2023-03-06T13:06:00.881Z,19.34
2023-03-06T13:07:00.864Z,19.46
2023-03-06T13:08:00.838Z,19.49
2023-03-06T13:09:00.824Z,19.64
2023-03-06T13:10:00.855Z,19.45
2023-03-06T13:11:00.795Z,19.60
2023-03-06T13:12:00.834Z,19.56
2023-03-06T13:13:00.896Z,19.53
2023-03-06T13:14:00.789Z,19.40
2023-03-06T13:15:00.870Z,19.51
2023-03-06T13:16:00.776Z,19.49
2023-03-06T13:17:00.781Z,19.49
2023-03-06T13:18:00.783Z,19.42
2023-03-06T13:19:00.737Z,19.47
2023-03-06T13:20:00.722Z,19.55
2023-03-06T13:21:00.742Z,19.55
2023-03-06T13:22:00.770Z,19.49
2023-03-06T13:23:00.768Z,19.51
2023-03-06T13:24:00.725Z,19.53
2023-03-06T13:25:08.164Z,19.52
2023-03-06T13:26:01.737Z,19.45
2023-03-06T13:27:00.716Z,19.37
2023-03-06T13:28:00.682Z,19.46
2023-03-06T13:29:00.684Z,19.46
2023-03-06T13:30:00.691Z,19.43
2023-03-06T13:31:00.731Z,19.49
2023-03-06T13:32:00.752Z,19.47
2023-03-06T13:33:00.628Z,19.49
2023-03-06T13:34:00.657Z,19.43
2023-03-06T13:35:00.643Z,19.47
2023-03-06T13:36:00.659Z,19.46
2023-03-06T13:37:00.621Z,19.52
2023-03-06T13:38:00.595Z,19.52
2023-03-06T13:39:00.604Z,19.49
2023-03-06T13:40:00.623Z,19.50
2023-03-06T13:41:00.621Z,19.55
2023-03-06T13:42:00.558Z,19.50
2023-03-06T13:43:00.564Z,19.50
2023-03-06T13:44:00.576Z,19.49
2023-03-06T13:45:00.561Z,19.52
2023-03-06T13:46:00.576Z,19.47
2023-03-06T13:47:00.580Z,19.50
2023-03-06T13:48:27.244Z,19.49
2023-03-06T13:49:01.522Z,19.45
2023-03-06T13:50:00.521Z,19.41
2023-03-06T13:51:00.525Z,19.40
2023-03-06T13:52:00.545Z,19.39
2023-03-06T13:53:00.493Z,19.34
2023-03-06T13:54:00.518Z,19.40
2023-03-06T13:55:00.484Z,19.40
2023-03-06T13:56:00.495Z,19.31
2023-03-06T13:57:00.455Z,19.26
2023-03-06T13:58:00.478Z,19.26
2023-03-06T13:59:00.477Z,19.19
2023-03-06T14:00:08.559Z,19.14
2023-03-06T14:01:01.476Z,19.19
2023-03-06T14:02:00.444Z,19.13
2023-03-06T14:03:00.466Z,19.09
2023-03-06T14:04:00.485Z,19.09
2023-03-06T14:05:00.411Z,19.02
2023-03-06T14:06:00.421Z,19.06
2023-03-06T14:07:00.394Z,18.99
2023-03-06T14:08:00.397Z,18.94
2023-03-06T14:09:00.369Z,18.91
2023-03-06T14:10:00.361Z,18.91
2023-03-06T14:11:00.379Z,18.93
2023-03-06T14:12:00.356Z,18.81
2023-03-06T14:13:00.373Z,18.86
2023-03-06T14:14:00.336Z,18.86
2023-03-06T14:15:00.345Z,18.76
2023-03-06T14:16:00.403Z,18.76
2023-03-06T14:17:00.327Z,18.72
2023-03-06T14:18:00.319Z,18.70
2023-03-06T14:19:00.318Z,18.79
2023-03-06T14:20:00.314Z,18.78
2023-03-06T14:21:00.293Z,18.79
2023-03-06T14:22:00.303Z,19.75
2023-03-06T14:23:00.268Z,20.89
